sensor_id;sensor_type;location;lat;lon;timestamp;P1;durP1;ratioP1;P2;durP2;ratioP2
72621;SDS011;60665;53.506;9.582;2024-01-06T00:02:14;5.38;;;2.47;;
72621;SDS011;60665;53.506;9.582;2024-01-06T00:04:39;7.00;;;2.78;;
72621;SDS011;60665;53.506;9.582;2024-01-06T00:07:04;6.73;;;2.97;;
72621;SDS011;60665;53.506;9.582;2024-01-06T00:09:29;7.57;;;2.43;;
72621;SDS011;60665;53.506;9.582;2024-01-06T00:11:55;7.93;;;3.60;;
72621;SDS011;60665;53.506;9.582;2024-01-06T00:14:20;7.55;;;2.88;;
72621;SDS011;60665;53.506;9.582;2024-01-06T00:16:45;7.23;;;2.90;;
72621;SDS011;60665;53.506;9.582;2024-01-06T00:19:10;9.27;;;3.33;;
72621;SDS011;60665;53.506;9.582;2024-01-06T00:21:36;7.18;;;2.78;;
72621;SDS011;60665;53.506;9.582;2024-01-06T00:24:01;7.80;;;2.80;;
72621;SDS011;60665;53.506;9.582;2024-01-06T00:26:26;6.60;;;2.80;;
72621;SDS011;60665;53.506;9.582;2024-01-06T00:28:52;5.45;;;2.42;;
72621;SDS011;60665;53.506;9.582;2024-01-06T00:31:17;7.25;;;2.83;;
72621;SDS011;60665;53.506;9.582;2024-01-06T00:33:43;7.07;;;2.75;;
72621;SDS011;60665;53.506;9.582;2024-01-06T00:36:08;7.60;;;3.13;;
72621;SDS011;60665;53.506;9.582;2024-01-06T00:38:34;7.07;;;2.53;;
72621;SDS011;60665;53.506;9.582;2024-01-06T00:41:00;7.63;;;2.88;;
72621;SDS011;60665;53.506;9.582;2024-01-06T00:43:25;6.30;;;2.78;;
72621;SDS011;60665;53.506;9.582;2024-01-06T00:45:50;5.37;;;2.63;;
72621;SDS011;60665;53.506;9.582;2024-01-06T00:48:15;6.45;;;2.75;;
72621;SDS011;60665;53.506;9.582;2024-01-06T00:50:41;7.00;;;2.67;;
72621;SDS011;60665;53.506;9.582;2024-01-06T00:53:06;6.28;;;2.67;;
72621;SDS011;60665;53.506;9.582;2024-01-06T00:55:31;6.30;;;2.40;;
72621;SDS011;60665;53.506;9.582;2024-01-06T00:57:56;6.47;;;2.77;;
72621;SDS011;60665;53.506;9.582;2024-01-06T01:00:22;6.63;;;2.60;;
72621;SDS011;60665;53.506;9.582;2024-01-06T01:02:47;9.32;;;3.20;;
72621;SDS011;60665;53.506;9.582;2024-01-06T01:05:13;6.97;;;2.67;;
72621;SDS011;60665;53.506;9.582;2024-01-06T01:07:38;7.73;;;2.60;;
72621;SDS011;60665;53.506;9.582;2024-01-06T01:10:03;6.90;;;2.47;;
72621;SDS011;60665;53.506;9.582;2024-01-06T01:12:29;6.43;;;2.42;;
72621;SDS011;60665;53.506;9.582;2024-01-06T01:14:55;8.07;;;2.63;;
72621;SDS011;60665;53.506;9.582;2024-01-06T01:17:20;5.83;;;2.50;;
72621;SDS011;60665;53.506;9.582;2024-01-06T01:19:45;6.40;;;2.37;;
72621;SDS011;60665;53.506;9.582;2024-01-06T01:22:11;6.85;;;2.90;;
72621;SDS011;60665;53.506;9.582;2024-01-06T01:24:36;6.50;;;2.35;;
72621;SDS011;60665;53.506;9.582;2024-01-06T01:27:01;5.45;;;2.53;;
72621;SDS011;60665;53.506;9.582;2024-01-06T01:29:27;5.07;;;2.42;;
72621;SDS011;60665;53.506;9.582;2024-01-06T01:31:52;4.93;;;2.27;;
72621;SDS011;60665;53.506;9.582;2024-01-06T01:34:17;6.13;;;2.50;;
72621;SDS011;60665;53.506;9.582;2024-01-06T01:36:42;5.40;;;2.63;;
72621;SDS011;60665;53.506;9.582;2024-01-06T01:39:08;8.60;;;2.83;;
72621;SDS011;60665;53.506;9.582;2024-01-06T01:41:33;6.57;;;2.87;;
72621;SDS011;60665;53.506;9.582;2024-01-06T01:43:58;5.20;;;2.33;;
72621;SDS011;60665;53.506;9.582;2024-01-06T01:46:25;6.33;;;2.80;;
72621;SDS011;60665;53.506;9.582;2024-01-06T01:48:50;7.13;;;2.97;;
72621;SDS011;60665;53.506;9.582;2024-01-06T01:51:15;7.00;;;2.97;;
72621;SDS011;60665;53.506;9.582;2024-01-06T01:53:42;5.95;;;2.97;;
72621;SDS011;60665;53.506;9.582;2024-01-06T01:56:07;5.87;;;2.50;;
72621;SDS011;60665;53.506;9.582;2024-01-06T01:58:33;5.85;;;2.50;;
72621;SDS011;60665;53.506;9.582;2024-01-06T02:00:59;7.07;;;2.90;;
72621;SDS011;60665;53.506;9.582;2024-01-06T02:03:24;5.85;;;2.58;;
72621;SDS011;60665;53.506;9.582;2024-01-06T02:05:50;5.60;;;2.50;;
72621;SDS011;60665;53.506;9.582;2024-01-06T02:08:15;6.32;;;2.90;;
72621;SDS011;60665;53.506;9.582;2024-01-06T02:10:40;6.60;;;2.35;;
72621;SDS011;60665;53.506;9.582;2024-01-06T02:13:09;5.95;;;2.55;;
72621;SDS011;60665;53.506;9.582;2024-01-06T02:15:35;6.43;;;2.60;;
72621;SDS011;60665;53.506;9.582;2024-01-06T02:18:00;9.13;;;2.87;;
72621;SDS011;60665;53.506;9.582;2024-01-06T02:20:25;6.23;;;2.43;;
72621;SDS011;60665;53.506;9.582;2024-01-06T02:22:51;7.13;;;2.70;;
72621;SDS011;60665;53.506;9.582;2024-01-06T02:25:16;6.33;;;2.53;;
72621;SDS011;60665;53.506;9.582;2024-01-06T02:27:43;5.60;;;2.38;;
72621;SDS011;60665;53.506;9.582;2024-01-06T02:30:08;6.63;;;2.80;;
72621;SDS011;60665;53.506;9.582;2024-01-06T02:32:34;7.88;;;2.88;;
72621;SDS011;60665;53.506;9.582;2024-01-06T02:34:59;8.57;;;3.13;;
72621;SDS011;60665;53.506;9.582;2024-01-06T02:37:24;5.27;;;2.10;;
72621;SDS011;60665;53.506;9.582;2024-01-06T02:39:50;4.93;;;2.07;;
72621;SDS011;60665;53.506;9.582;2024-01-06T02:42:16;5.78;;;2.70;;
72621;SDS011;60665;53.506;9.582;2024-01-06T02:44:41;5.73;;;2.20;;
72621;SDS011;60665;53.506;9.582;2024-01-06T02:47:06;5.67;;;2.50;;
72621;SDS011;60665;53.506;9.582;2024-01-06T02:49:31;5.20;;;2.13;;
72621;SDS011;60665;53.506;9.582;2024-01-06T02:51:57;6.53;;;2.80;;
72621;SDS011;60665;53.506;9.582;2024-01-06T02:54:22;6.37;;;2.50;;
72621;SDS011;60665;53.506;9.582;2024-01-06T02:56:47;6.13;;;2.97;;
72621;SDS011;60665;53.506;9.582;2024-01-06T02:59:12;5.37;;;2.40;;
72621;SDS011;60665;53.506;9.582;2024-01-06T03:01:37;5.30;;;2.33;;
72621;SDS011;60665;53.506;9.582;2024-01-06T03:04:03;6.07;;;2.28;;
72621;SDS011;60665;53.506;9.582;2024-01-06T03:06:28;5.63;;;2.50;;
72621;SDS011;60665;53.506;9.582;2024-01-06T03:08:53;5.87;;;2.60;;
72621;SDS011;60665;53.506;9.582;2024-01-06T03:11:18;6.33;;;2.87;;
72621;SDS011;60665;53.506;9.582;2024-01-06T03:13:44;7.90;;;3.03;;
72621;SDS011;60665;53.506;9.582;2024-01-06T03:16:10;5.97;;;2.77;;
72621;SDS011;60665;53.506;9.582;2024-01-06T03:18:36;5.18;;;2.30;;
72621;SDS011;60665;53.506;9.582;2024-01-06T03:21:01;6.07;;;2.63;;
72621;SDS011;60665;53.506;9.582;2024-01-06T03:23:26;7.60;;;2.50;;
72621;SDS011;60665;53.506;9.582;2024-01-06T03:25:51;5.90;;;2.10;;
72621;SDS011;60665;53.506;9.582;2024-01-06T03:28:17;6.53;;;2.80;;
72621;SDS011;60665;53.506;9.582;2024-01-06T03:30:42;5.43;;;2.63;;
72621;SDS011;60665;53.506;9.582;2024-01-06T03:33:07;5.70;;;2.37;;
72621;SDS011;60665;53.506;9.582;2024-01-06T03:35:32;7.75;;;2.55;;
72621;SDS011;60665;53.506;9.582;2024-01-06T03:37:58;6.47;;;2.67;;
72621;SDS011;60665;53.506;9.582;2024-01-06T03:40:23;8.13;;;2.63;;
72621;SDS011;60665;53.506;9.582;2024-01-06T03:42:48;5.93;;;2.60;;
72621;SDS011;60665;53.506;9.582;2024-01-06T03:45:14;5.88;;;2.35;;
72621;SDS011;60665;53.506;9.582;2024-01-06T03:47:39;7.18;;;3.05;;
72621;SDS011;60665;53.506;9.582;2024-01-06T03:50:04;7.40;;;2.80;;
72621;SDS011;60665;53.506;9.582;2024-01-06T03:52:29;7.20;;;3.17;;
72621;SDS011;60665;53.506;9.582;2024-01-06T03:54:55;7.23;;;3.10;;
72621;SDS011;60665;53.506;9.582;2024-01-06T03:57:20;9.27;;;2.90;;
72621;SDS011;60665;53.506;9.582;2024-01-06T03:59:45;6.43;;;2.90;;
72621;SDS011;60665;53.506;9.582;2024-01-06T04:02:10;6.00;;;2.83;;
72621;SDS011;60665;53.506;9.582;2024-01-06T04:04:35;6.30;;;3.00;;
72621;SDS011;60665;53.506;9.582;2024-01-06T04:07:01;7.77;;;3.47;;
72621;SDS011;60665;53.506;9.582;2024-01-06T04:09:26;6.55;;;3.15;;
72621;SDS011;60665;53.506;9.582;2024-01-06T04:11:52;7.38;;;3.22;;
72621;SDS011;60665;53.506;9.582;2024-01-06T04:14:17;6.30;;;3.03;;
72621;SDS011;60665;53.506;9.582;2024-01-06T04:16:42;7.40;;;3.03;;
72621;SDS011;60665;53.506;9.582;2024-01-06T04:19:07;6.97;;;3.20;;
72621;SDS011;60665;53.506;9.582;2024-01-06T04:21:33;8.57;;;3.60;;
72621;SDS011;60665;53.506;9.582;2024-01-06T04:23:59;7.57;;;3.65;;
72621;SDS011;60665;53.506;9.582;2024-01-06T04:26:24;7.70;;;2.90;;
72621;SDS011;60665;53.506;9.582;2024-01-06T04:28:50;9.70;;;3.80;;
72621;SDS011;60665;53.506;9.582;2024-01-06T04:31:15;7.10;;;3.10;;
72621;SDS011;60665;53.506;9.582;2024-01-06T04:33:40;8.43;;;3.23;;
72621;SDS011;60665;53.506;9.582;2024-01-06T04:36:06;8.37;;;3.00;;
72621;SDS011;60665;53.506;9.582;2024-01-06T04:38:32;7.18;;;3.30;;
72621;SDS011;60665;53.506;9.582;2024-01-06T04:40:57;7.53;;;3.50;;
72621;SDS011;60665;53.506;9.582;2024-01-06T04:43:22;7.43;;;3.47;;
72621;SDS011;60665;53.506;9.582;2024-01-06T04:45:47;7.90;;;2.83;;
72621;SDS011;60665;53.506;9.582;2024-01-06T04:48:13;7.13;;;3.80;;
72621;SDS011;60665;53.506;9.582;2024-01-06T04:50:38;6.53;;;3.03;;
72621;SDS011;60665;53.506;9.582;2024-01-06T04:53:03;7.57;;;3.20;;
72621;SDS011;60665;53.506;9.582;2024-01-06T04:55:28;6.90;;;2.87;;
72621;SDS011;60665;53.506;9.582;2024-01-06T04:57:54;6.07;;;3.00;;
72621;SDS011;60665;53.506;9.582;2024-01-06T05:00:19;6.68;;;2.92;;
72621;SDS011;60665;53.506;9.582;2024-01-06T05:02:44;9.03;;;3.87;;
72621;SDS011;60665;53.506;9.582;2024-01-06T05:05:10;8.63;;;3.70;;
72621;SDS011;60665;53.506;9.582;2024-01-06T05:07:35;8.70;;;3.27;;
72621;SDS011;60665;53.506;9.582;2024-01-06T05:10:00;6.43;;;3.00;;
72621;SDS011;60665;53.506;9.582;2024-01-06T05:12:25;8.03;;;3.07;;
72621;SDS011;60665;53.506;9.582;2024-01-06T05:14:50;6.87;;;2.80;;
72621;SDS011;60665;53.506;9.582;2024-01-06T05:17:16;8.60;;;3.53;;
72621;SDS011;60665;53.506;9.582;2024-01-06T05:19:41;7.53;;;2.60;;
72621;SDS011;60665;53.506;9.582;2024-01-06T05:22:06;8.10;;;3.13;;
72621;SDS011;60665;53.506;9.582;2024-01-06T05:24:31;8.02;;;3.33;;
72621;SDS011;60665;53.506;9.582;2024-01-06T05:26:57;6.43;;;3.10;;
72621;SDS011;60665;53.506;9.582;2024-01-06T05:29:22;6.97;;;2.80;;
72621;SDS011;60665;53.506;9.582;2024-01-06T05:31:47;6.20;;;2.72;;
72621;SDS011;60665;53.506;9.582;2024-01-06T05:34:14;7.65;;;3.38;;
72621;SDS011;60665;53.506;9.582;2024-01-06T05:36:39;8.35;;;3.17;;
72621;SDS011;60665;53.506;9.582;2024-01-06T05:39:04;9.00;;;3.40;;
72621;SDS011;60665;53.506;9.582;2024-01-06T05:41:29;8.15;;;3.55;;
72621;SDS011;60665;53.506;9.582;2024-01-06T05:43:56;9.48;;;2.92;;
72621;SDS011;60665;53.506;9.582;2024-01-06T05:46:22;8.23;;;3.50;;
72621;SDS011;60665;53.506;9.582;2024-01-06T05:48:47;6.68;;;3.20;;
72621;SDS011;60665;53.506;9.582;2024-01-06T05:51:12;9.30;;;3.38;;
72621;SDS011;60665;53.506;9.582;2024-01-06T05:53:37;7.63;;;2.85;;
72621;SDS011;60665;53.506;9.582;2024-01-06T05:56:03;9.00;;;3.50;;
72621;SDS011;60665;53.506;9.582;2024-01-06T05:58:28;7.93;;;3.72;;
72621;SDS011;60665;53.506;9.582;2024-01-06T06:00:53;6.80;;;3.23;;
72621;SDS011;60665;53.506;9.582;2024-01-06T06:03:18;7.63;;;3.27;;
72621;SDS011;60665;53.506;9.582;2024-01-06T06:05:44;8.53;;;3.33;;
72621;SDS011;60665;53.506;9.582;2024-01-06T06:08:10;6.80;;;2.97;;
72621;SDS011;60665;53.506;9.582;2024-01-06T06:10:35;7.57;;;3.27;;
72621;SDS011;60665;53.506;9.582;2024-01-06T06:13:16;7.70;;;2.90;;
72621;SDS011;60665;53.506;9.582;2024-01-06T06:15:41;8.83;;;3.60;;
72621;SDS011;60665;53.506;9.582;2024-01-06T06:18:06;10.87;;;4.53;;
72621;SDS011;60665;53.506;9.582;2024-01-06T06:20:32;8.00;;;3.50;;
72621;SDS011;60665;53.506;9.582;2024-01-06T06:22:57;11.00;;;3.50;;
72621;SDS011;60665;53.506;9.582;2024-01-06T06:25:22;7.03;;;3.23;;
72621;SDS011;60665;53.506;9.582;2024-01-06T06:27:47;8.17;;;3.77;;
72621;SDS011;60665;53.506;9.582;2024-01-06T06:30:13;7.60;;;3.50;;
72621;SDS011;60665;53.506;9.582;2024-01-06T06:32:38;9.10;;;3.83;;
72621;SDS011;60665;53.506;9.582;2024-01-06T06:35:03;10.33;;;4.00;;
72621;SDS011;60665;53.506;9.582;2024-01-06T06:37:29;11.50;;;3.90;;
72621;SDS011;60665;53.506;9.582;2024-01-06T06:39:54;9.30;;;4.03;;
72621;SDS011;60665;53.506;9.582;2024-01-06T06:42:19;7.10;;;3.43;;
72621;SDS011;60665;53.506;9.582;2024-01-06T06:44:44;11.70;;;4.68;;
72621;SDS011;60665;53.506;9.582;2024-01-06T06:47:10;13.17;;;5.30;;
72621;SDS011;60665;53.506;9.582;2024-01-06T06:49:35;11.47;;;4.07;;
72621;SDS011;60665;53.506;9.582;2024-01-06T06:52:00;12.37;;;4.87;;
72621;SDS011;60665;53.506;9.582;2024-01-06T06:54:25;17.10;;;6.07;;
72621;SDS011;60665;53.506;9.582;2024-01-06T06:56:50;9.30;;;3.93;;
72621;SDS011;60665;53.506;9.582;2024-01-06T06:59:16;12.48;;;5.15;;
72621;SDS011;60665;53.506;9.582;2024-01-06T07:01:41;10.70;;;4.78;;
72621;SDS011;60665;53.506;9.582;2024-01-06T07:04:06;9.07;;;4.60;;
72621;SDS011;60665;53.506;9.582;2024-01-06T07:06:32;11.30;;;3.97;;
72621;SDS011;60665;53.506;9.582;2024-01-06T07:08:57;8.43;;;4.07;;
72621;SDS011;60665;53.506;9.582;2024-01-06T07:11:22;7.82;;;4.00;;
72621;SDS011;60665;53.506;9.582;2024-01-06T07:13:47;8.40;;;4.15;;
72621;SDS011;60665;53.506;9.582;2024-01-06T07:16:13;9.67;;;3.73;;
72621;SDS011;60665;53.506;9.582;2024-01-06T07:18:38;8.23;;;4.65;;
72621;SDS011;60665;53.506;9.582;2024-01-06T07:21:06;10.73;;;3.83;;
72621;SDS011;60665;53.506;9.582;2024-01-06T07:23:31;9.07;;;4.03;;
72621;SDS011;60665;53.506;9.582;2024-01-06T07:25:57;8.95;;;3.97;;
72621;SDS011;60665;53.506;9.582;2024-01-06T07:28:23;8.30;;;3.85;;
72621;SDS011;60665;53.506;9.582;2024-01-06T07:30:48;9.03;;;3.63;;
72621;SDS011;60665;53.506;9.582;2024-01-06T07:33:13;8.07;;;3.83;;
72621;SDS011;60665;53.506;9.582;2024-01-06T07:35:38;10.20;;;3.93;;
72621;SDS011;60665;53.506;9.582;2024-01-06T07:38:08;9.65;;;3.67;;
72621;SDS011;60665;53.506;9.582;2024-01-06T07:40:35;10.23;;;4.43;;
72621;SDS011;60665;53.506;9.582;2024-01-06T07:43:00;9.73;;;4.30;;
72621;SDS011;60665;53.506;9.582;2024-01-06T07:45:27;11.95;;;4.88;;
72621;SDS011;60665;53.506;9.582;2024-01-06T07:47:52;9.55;;;3.97;;
72621;SDS011;60665;53.506;9.582;2024-01-06T07:50:17;8.77;;;3.77;;
72621;SDS011;60665;53.506;9.582;2024-01-06T07:52:42;10.97;;;4.73;;
72621;SDS011;60665;53.506;9.582;2024-01-06T07:55:08;7.53;;;4.00;;
72621;SDS011;60665;53.506;9.582;2024-01-06T07:57:33;14.27;;;5.88;;
72621;SDS011;60665;53.506;9.582;2024-01-06T07:59:58;8.90;;;4.18;;
72621;SDS011;60665;53.506;9.582;2024-01-06T08:02:23;14.15;;;6.30;;
72621;SDS011;60665;53.506;9.582;2024-01-06T08:04:49;13.63;;;5.17;;
72621;SDS011;60665;53.506;9.582;2024-01-06T08:07:14;9.10;;;3.83;;
72621;SDS011;60665;53.506;9.582;2024-01-06T08:09:39;10.43;;;4.22;;
72621;SDS011;60665;53.506;9.582;2024-01-06T08:12:04;8.53;;;3.77;;
72621;SDS011;60665;53.506;9.582;2024-01-06T08:14:30;9.45;;;4.20;;
72621;SDS011;60665;53.506;9.582;2024-01-06T08:16:55;8.40;;;3.90;;
72621;SDS011;60665;53.506;9.582;2024-01-06T08:19:20;10.03;;;4.30;;
72621;SDS011;60665;53.506;9.582;2024-01-06T08:21:46;7.20;;;3.53;;
72621;SDS011;60665;53.506;9.582;2024-01-06T08:24:12;10.25;;;4.30;;
72621;SDS011;60665;53.506;9.582;2024-01-06T08:26:37;7.15;;;3.47;;
72621;SDS011;60665;53.506;9.582;2024-01-06T08:29:02;8.85;;;4.13;;
72621;SDS011;60665;53.506;9.582;2024-01-06T08:31:28;7.67;;;3.57;;
72621;SDS011;60665;53.506;9.582;2024-01-06T08:33:53;10.73;;;4.50;;
72621;SDS011;60665;53.506;9.582;2024-01-06T08:36:18;9.00;;;3.87;;
72621;SDS011;60665;53.506;9.582;2024-01-06T08:38:44;9.02;;;4.35;;
72621;SDS011;60665;53.506;9.582;2024-01-06T08:41:09;8.48;;;4.18;;
72621;SDS011;60665;53.506;9.582;2024-01-06T08:43:34;11.23;;;4.33;;
72621;SDS011;60665;53.506;9.582;2024-01-06T08:46:00;11.60;;;4.23;;
72621;SDS011;60665;53.506;9.582;2024-01-06T08:48:25;10.35;;;4.47;;
72621;SDS011;60665;53.506;9.582;2024-01-06T08:50:50;12.68;;;4.47;;
72621;SDS011;60665;53.506;9.582;2024-01-06T08:53:16;11.40;;;4.25;;
72621;SDS011;60665;53.506;9.582;2024-01-06T08:55:41;11.52;;;4.72;;
72621;SDS011;60665;53.506;9.582;2024-01-06T08:58:06;9.57;;;4.33;;
72621;SDS011;60665;53.506;9.582;2024-01-06T09:00:31;17.60;;;4.60;;
72621;SDS011;60665;53.506;9.582;2024-01-06T09:02:57;12.60;;;4.90;;
72621;SDS011;60665;53.506;9.582;2024-01-06T09:05:22;10.20;;;3.97;;
72621;SDS011;60665;53.506;9.582;2024-01-06T09:07:47;8.17;;;3.60;;
72621;SDS011;60665;53.506;9.582;2024-01-06T09:10:15;9.43;;;3.97;;
72621;SDS011;60665;53.506;9.582;2024-01-06T09:12:41;11.27;;;3.90;;
72621;SDS011;60665;53.506;9.582;2024-01-06T09:15:06;8.63;;;3.70;;
72621;SDS011;60665;53.506;9.582;2024-01-06T09:17:32;8.10;;;3.65;;
72621;SDS011;60665;53.506;9.582;2024-01-06T09:19:57;7.93;;;3.75;;
72621;SDS011;60665;53.506;9.582;2024-01-06T09:22:23;11.63;;;3.85;;
72621;SDS011;60665;53.506;9.582;2024-01-06T09:24:48;8.98;;;4.15;;
72621;SDS011;60665;53.506;9.582;2024-01-06T09:27:14;9.40;;;4.23;;
72621;SDS011;60665;53.506;9.582;2024-01-06T09:29:40;9.52;;;3.42;;
72621;SDS011;60665;53.506;9.582;2024-01-06T09:32:05;9.70;;;3.97;;
72621;SDS011;60665;53.506;9.582;2024-01-06T09:34:30;9.27;;;4.07;;
72621;SDS011;60665;53.506;9.582;2024-01-06T09:36:55;10.53;;;4.00;;
72621;SDS011;60665;53.506;9.582;2024-01-06T09:39:20;9.50;;;3.83;;
72621;SDS011;60665;53.506;9.582;2024-01-06T09:41:46;9.07;;;3.77;;
72621;SDS011;60665;53.506;9.582;2024-01-06T09:44:11;9.87;;;4.50;;
72621;SDS011;60665;53.506;9.582;2024-01-06T09:46:36;8.80;;;3.70;;
72621;SDS011;60665;53.506;9.582;2024-01-06T09:51:31;9.90;;;4.70;;
72621;SDS011;60665;53.506;9.582;2024-01-06T09:56:22;9.27;;;3.67;;
72621;SDS011;60665;53.506;9.582;2024-01-06T09:58:48;7.50;;;3.30;;
72621;SDS011;60665;53.506;9.582;2024-01-06T10:01:14;7.77;;;3.60;;
72621;SDS011;60665;53.506;9.582;2024-01-06T10:03:39;10.98;;;4.50;;
72621;SDS011;60665;53.506;9.582;2024-01-06T10:06:05;9.30;;;4.07;;
72621;SDS011;60665;53.506;9.582;2024-01-06T10:08:30;11.18;;;4.53;;
72621;SDS011;60665;53.506;9.582;2024-01-06T10:10:58;10.82;;;4.72;;
72621;SDS011;60665;53.506;9.582;2024-01-06T10:13:23;8.10;;;3.75;;
72621;SDS011;60665;53.506;9.582;2024-01-06T10:15:49;12.20;;;4.07;;
72621;SDS011;60665;53.506;9.582;2024-01-06T10:18:15;8.82;;;4.40;;
72621;SDS011;60665;53.506;9.582;2024-01-06T10:20:40;8.85;;;4.05;;
72621;SDS011;60665;53.506;9.582;2024-01-06T10:23:06;8.52;;;3.97;;
72621;SDS011;60665;53.506;9.582;2024-01-06T10:25:31;10.07;;;4.40;;
72621;SDS011;60665;53.506;9.582;2024-01-06T10:27:56;9.30;;;4.25;;
72621;SDS011;60665;53.506;9.582;2024-01-06T10:30:22;10.93;;;4.60;;
72621;SDS011;60665;53.506;9.582;2024-01-06T10:32:49;10.45;;;4.00;;
72621;SDS011;60665;53.506;9.582;2024-01-06T10:35:15;9.40;;;3.90;;
72621;SDS011;60665;53.506;9.582;2024-01-06T10:37:41;9.90;;;4.50;;
72621;SDS011;60665;53.506;9.582;2024-01-06T10:42:35;8.25;;;3.65;;
72621;SDS011;60665;53.506;9.582;2024-01-06T10:45:01;8.10;;;3.88;;
72621;SDS011;60665;53.506;9.582;2024-01-06T10:47:27;10.18;;;3.85;;
72621;SDS011;60665;53.506;9.582;2024-01-06T10:49:55;10.60;;;4.35;;
72621;SDS011;60665;53.506;9.582;2024-01-06T10:52:23;9.02;;;4.10;;
72621;SDS011;60665;53.506;9.582;2024-01-06T10:54:48;8.23;;;3.78;;
72621;SDS011;60665;53.506;9.582;2024-01-06T10:57:16;9.38;;;3.78;;
72621;SDS011;60665;53.506;9.582;2024-01-06T10:59:43;8.98;;;4.15;;
72621;SDS011;60665;53.506;9.582;2024-01-06T11:02:10;11.00;;;4.40;;
72621;SDS011;60665;53.506;9.582;2024-01-06T11:04:37;8.98;;;3.88;;
72621;SDS011;60665;53.506;9.582;2024-01-06T11:07:02;13.15;;;4.55;;
72621;SDS011;60665;53.506;9.582;2024-01-06T11:09:29;10.13;;;4.00;;
72621;SDS011;60665;53.506;9.582;2024-01-06T11:11:58;13.75;;;5.32;;
72621;SDS011;60665;53.506;9.582;2024-01-06T11:14:25;9.45;;;4.28;;
72621;SDS011;60665;53.506;9.582;2024-01-06T11:16:51;15.60;;;5.00;;
72621;SDS011;60665;53.506;9.582;2024-01-06T11:24:47;9.70;;;4.38;;
72621;SDS011;60665;53.506;9.582;2024-01-06T11:27:23;8.15;;;3.63;;
72621;SDS011;60665;53.506;9.582;2024-01-06T11:29:51;9.23;;;3.78;;
72621;SDS011;60665;53.506;9.582;2024-01-06T11:34:48;10.80;;;4.88;;
72621;SDS011;60665;53.506;9.582;2024-01-06T11:37:14;11.07;;;4.13;;
72621;SDS011;60665;53.506;9.582;2024-01-06T11:39:42;9.10;;;3.70;;
72621;SDS011;60665;53.506;9.582;2024-01-06T11:42:09;11.75;;;4.75;;
72621;SDS011;60665;53.506;9.582;2024-01-06T11:44:38;7.85;;;3.60;;
72621;SDS011;60665;53.506;9.582;2024-01-06T11:47:04;9.15;;;3.95;;
72621;SDS011;60665;53.506;9.582;2024-01-06T11:49:29;12.52;;;4.10;;
72621;SDS011;60665;53.506;9.582;2024-01-06T11:51:56;10.10;;;4.10;;
72621;SDS011;60665;53.506;9.582;2024-01-06T11:54:21;7.88;;;3.55;;
72621;SDS011;60665;53.506;9.582;2024-01-06T11:56:46;9.20;;;3.55;;
72621;SDS011;60665;53.506;9.582;2024-01-06T11:59:12;9.80;;;4.07;;
72621;SDS011;60665;53.506;9.582;2024-01-06T12:01:37;15.77;;;3.73;;
72621;SDS011;60665;53.506;9.582;2024-01-06T12:04:03;9.50;;;4.05;;
72621;SDS011;60665;53.506;9.582;2024-01-06T12:06:30;8.15;;;3.88;;
72621;SDS011;60665;53.506;9.582;2024-01-06T12:09:16;9.23;;;4.13;;
72621;SDS011;60665;53.506;9.582;2024-01-06T12:11:41;7.60;;;3.40;;
72621;SDS011;60665;53.506;9.582;2024-01-06T12:14:06;7.70;;;3.42;;
72621;SDS011;60665;53.506;9.582;2024-01-06T12:16:31;7.28;;;3.20;;
72621;SDS011;60665;53.506;9.582;2024-01-06T12:18:58;11.77;;;4.93;;
72621;SDS011;60665;53.506;9.582;2024-01-06T12:21:25;8.27;;;4.22;;
72621;SDS011;60665;53.506;9.582;2024-01-06T12:23:51;8.68;;;3.90;;
72621;SDS011;60665;53.506;9.582;2024-01-06T12:26:16;11.03;;;4.87;;
72621;SDS011;60665;53.506;9.582;2024-01-06T12:28:44;9.70;;;3.47;;
72621;SDS011;60665;53.506;9.582;2024-01-06T12:31:09;13.38;;;3.88;;
72621;SDS011;60665;53.506;9.582;2024-01-06T12:33:35;9.02;;;3.45;;
72621;SDS011;60665;53.506;9.582;2024-01-06T12:36:02;6.65;;;3.33;;
72621;SDS011;60665;53.506;9.582;2024-01-06T12:38:27;7.13;;;3.17;;
72621;SDS011;60665;53.506;9.582;2024-01-06T12:40:55;7.38;;;3.78;;
72621;SDS011;60665;53.506;9.582;2024-01-06T12:43:20;8.40;;;3.55;;
72621;SDS011;60665;53.506;9.582;2024-01-06T12:45:45;9.90;;;3.88;;
72621;SDS011;60665;53.506;9.582;2024-01-06T12:48:10;8.87;;;2.67;;
72621;SDS011;60665;53.506;9.582;2024-01-06T12:50:36;8.13;;;3.30;;
72621;SDS011;60665;53.506;9.582;2024-01-06T12:53:01;6.47;;;3.10;;
72621;SDS011;60665;53.506;9.582;2024-01-06T12:55:27;6.90;;;3.20;;
72621;SDS011;60665;53.506;9.582;2024-01-06T12:57:52;7.47;;;3.08;;
72621;SDS011;60665;53.506;9.582;2024-01-06T13:00:18;8.52;;;3.13;;
72621;SDS011;60665;53.506;9.582;2024-01-06T13:02:43;6.85;;;2.70;;
72621;SDS011;60665;53.506;9.582;2024-01-06T13:05:08;8.07;;;3.17;;
72621;SDS011;60665;53.506;9.582;2024-01-06T13:07:34;7.53;;;2.92;;
72621;SDS011;60665;53.506;9.582;2024-01-06T13:09:59;7.90;;;3.73;;
72621;SDS011;60665;53.506;9.582;2024-01-06T13:12:25;6.78;;;2.92;;
72621;SDS011;60665;53.506;9.582;2024-01-06T13:14:50;16.23;;;7.75;;
72621;SDS011;60665;53.506;9.582;2024-01-06T13:17:16;9.73;;;4.20;;
72621;SDS011;60665;53.506;9.582;2024-01-06T13:19:41;5.95;;;2.90;;
72621;SDS011;60665;53.506;9.582;2024-01-06T13:22:06;9.15;;;3.65;;
72621;SDS011;60665;53.506;9.582;2024-01-06T13:24:32;6.93;;;2.92;;
72621;SDS011;60665;53.506;9.582;2024-01-06T13:26:57;8.82;;;3.33;;
72621;SDS011;60665;53.506;9.582;2024-01-06T13:29:24;7.95;;;3.15;;
72621;SDS011;60665;53.506;9.582;2024-01-06T13:31:49;5.78;;;2.50;;
72621;SDS011;60665;53.506;9.582;2024-01-06T13:34:14;7.50;;;2.93;;
72621;SDS011;60665;53.506;9.582;2024-01-06T13:36:39;6.77;;;2.37;;
72621;SDS011;60665;53.506;9.582;2024-01-06T13:39:04;6.47;;;2.72;;
72621;SDS011;60665;53.506;9.582;2024-01-06T13:41:31;7.68;;;3.00;;
72621;SDS011;60665;53.506;9.582;2024-01-06T13:43:56;5.87;;;2.40;;
72621;SDS011;60665;53.506;9.582;2024-01-06T13:46:22;5.45;;;2.20;;
72621;SDS011;60665;53.506;9.582;2024-01-06T13:48:47;5.57;;;2.50;;
72621;SDS011;60665;53.506;9.582;2024-01-06T13:51:12;6.60;;;2.47;;
72621;SDS011;60665;53.506;9.582;2024-01-06T13:53:37;8.47;;;2.53;;
72621;SDS011;60665;53.506;9.582;2024-01-06T13:56:04;6.47;;;2.30;;
72621;SDS011;60665;53.506;9.582;2024-01-06T13:58:29;4.63;;;2.10;;
72621;SDS011;60665;53.506;9.582;2024-01-06T14:00:54;8.17;;;2.50;;
72621;SDS011;60665;53.506;9.582;2024-01-06T14:03:20;10.00;;;3.37;;
72621;SDS011;60665;53.506;9.582;2024-01-06T14:05:45;14.07;;;5.70;;
72621;SDS011;60665;53.506;9.582;2024-01-06T14:08:11;11.73;;;4.70;;
72621;SDS011;60665;53.506;9.582;2024-01-06T14:10:36;11.13;;;4.80;;
72621;SDS011;60665;53.506;9.582;2024-01-06T14:13:02;11.15;;;6.43;;
72621;SDS011;60665;53.506;9.582;2024-01-06T14:15:28;8.30;;;3.75;;
72621;SDS011;60665;53.506;9.582;2024-01-06T14:17:55;9.77;;;4.13;;
72621;SDS011;60665;53.506;9.582;2024-01-06T14:20:22;9.18;;;4.50;;
72621;SDS011;60665;53.506;9.582;2024-01-06T14:22:47;11.02;;;4.57;;
72621;SDS011;60665;53.506;9.582;2024-01-06T14:25:14;8.13;;;3.95;;
72621;SDS011;60665;53.506;9.582;2024-01-06T14:27:40;8.73;;;4.13;;
72621;SDS011;60665;53.506;9.582;2024-01-06T14:30:06;8.03;;;3.00;;
72621;SDS011;60665;53.506;9.582;2024-01-06T14:32:34;7.40;;;3.72;;
72621;SDS011;60665;53.506;9.582;2024-01-06T14:35:06;8.07;;;2.70;;
72621;SDS011;60665;53.506;9.582;2024-01-06T14:37:32;7.65;;;3.10;;
72621;SDS011;60665;53.506;9.582;2024-01-06T14:39:57;8.77;;;3.63;;
72621;SDS011;60665;53.506;9.582;2024-01-06T14:42:23;7.88;;;3.90;;
72621;SDS011;60665;53.506;9.582;2024-01-06T14:44:48;8.57;;;3.13;;
72621;SDS011;60665;53.506;9.582;2024-01-06T14:47:13;7.23;;;4.03;;
72621;SDS011;60665;53.506;9.582;2024-01-06T14:49:38;6.60;;;2.97;;
72621;SDS011;60665;53.506;9.582;2024-01-06T14:52:04;19.02;;;8.85;;